createdAt,value
2022-12-13T00:01:31.969Z,96484.41
2022-12-13T00:04:01.676Z,96482.69
2022-12-13T00:06:29.271Z,96480.00
2022-12-13T00:08:55.871Z,96476.47
2022-12-13T00:11:22.800Z,96462.78
2022-12-13T00:13:49.580Z,96467.22
2022-12-13T00:16:24.313Z,96458.53
2022-12-13T00:18:55.410Z,96453.19
2022-12-13T00:21:26.470Z,96465.69
2022-12-13T00:23:53.415Z,96455.75
2022-12-13T00:26:25.780Z,96454.84
2022-12-13T00:28:54.029Z,96459.91
2022-12-13T00:34:10.327Z,96447.53
2022-12-13T00:36:37.081Z,96440.66
2022-12-13T00:39:04.010Z,96438.88
2022-12-13T00:41:33.819Z,96433.56
2022-12-13T00:44:02.257Z,96427.50
2022-12-13T00:46:29.703Z,96429.25
2022-12-13T00:48:59.061Z,96417.13
2022-12-13T00:51:27.442Z,96417.94
2022-12-13T00:53:54.154Z,96411.97
2022-12-13T00:56:25.489Z,96417.19
2022-12-13T00:58:53.029Z,96414.59
2022-12-13T01:01:27.561Z,96424.16
2022-12-13T01:03:56.677Z,96416.34
2022-12-13T01:06:44.891Z,96422.25
2022-12-13T01:09:20.812Z,96427.38
2022-12-13T01:11:48.864Z,96425.75
2022-12-13T01:14:17.596Z,96424.00
2022-12-13T01:16:44.791Z,96425.91
2022-12-13T01:19:11.543Z,96435.38
2022-12-13T01:21:38.391Z,96427.78
2022-12-13T01:24:06.890Z,96426.22
2022-12-13T01:26:34.898Z,96427.75
2022-12-13T01:29:05.550Z,96423.41
2022-12-13T01:31:33.936Z,96421.72
2022-12-13T01:34:00.625Z,96419.91
2022-12-13T01:36:28.431Z,96418.97
2022-12-13T01:38:58.592Z,96413.06
2022-12-13T01:41:27.180Z,96411.34
2022-12-13T01:44:18.255Z,96409.66
2022-12-13T01:46:44.854Z,96413.09
2022-12-13T01:49:19.569Z,96408.81
2022-12-13T01:51:52.803Z,96414.81
2022-12-13T01:54:25.236Z,96407.09
2022-12-13T01:57:03.349Z,96405.31
2022-12-13T01:59:30.086Z,96408.81
2022-12-13T02:02:00.842Z,96404.50
2022-12-13T02:04:43.914Z,96395.81
2022-12-13T02:07:22.924Z,96403.44
2022-12-13T02:09:57.378Z,96403.59
2022-12-13T02:12:30.379Z,96400.13
2022-12-13T02:15:01.235Z,96407.84
2022-12-13T02:17:44.817Z,96407.25
2022-12-13T02:20:40.637Z,96408.16
2022-12-13T02:23:32.490Z,96400.44
2022-12-13T02:26:13.472Z,96408.09
2022-12-13T02:29:01.666Z,96401.28
2022-12-13T02:32:05.806Z,96403.28
2022-12-13T02:34:39.883Z,96399.88
2022-12-13T02:37:22.577Z,96399.19
2022-12-13T02:39:54.282Z,96411.34
2022-12-13T02:42:35.328Z,96403.78
2022-12-13T02:45:20.106Z,96407.13
2022-12-13T02:47:49.729Z,96405.59
2022-12-13T02:50:16.906Z,96412.53
2022-12-13T02:52:46.623Z,96401.41
2022-12-13T02:55:16.609Z,96400.72
2022-12-13T02:57:45.432Z,96400.78
2022-12-13T03:00:21.719Z,96398.31
2022-12-13T03:03:06.693Z,96399.34
2022-12-13T03:06:00.978Z,96402.78
2022-12-13T03:08:34.738Z,96401.03
2022-12-13T03:11:18.893Z,96402.19
2022-12-13T03:13:56.584Z,96399.50
2022-12-13T03:16:31.186Z,96393.50
2022-12-13T03:19:00.762Z,96395.41
2022-12-13T03:21:28.280Z,96389.28
2022-12-13T03:23:54.964Z,96392.69
2022-12-13T03:26:25.187Z,96391.78
2022-12-13T03:28:53.071Z,96405.59
2022-12-13T03:31:19.995Z,96402.06
2022-12-13T03:33:46.895Z,96403.28
2022-12-13T03:36:14.055Z,96407.81
2022-12-13T03:38:41.135Z,96401.22
2022-12-13T03:41:13.875Z,96403.19
2022-12-13T03:43:40.654Z,96399.69
2022-12-13T03:46:08.378Z,96404.34
2022-12-13T03:48:35.079Z,96397.66
2022-12-13T03:51:02.794Z,96402.78
2022-12-13T03:53:33.742Z,96389.44
2022-12-13T03:56:03.753Z,96390.91
2022-12-13T03:58:36.616Z,96393.44
2022-12-13T04:01:15.857Z,96390.69
2022-12-13T04:03:44.593Z,96392.34
2022-12-13T04:06:11.830Z,96390.53
2022-12-13T04:08:39.184Z,96387.97
2022-12-13T04:11:25.176Z,96387.91
2022-12-13T04:13:55.399Z,96393.03
2022-12-13T04:16:23.112Z,96384.53
2022-12-13T04:18:50.406Z,96394.72
2022-12-13T04:21:17.019Z,96398.22
2022-12-13T04:23:43.669Z,96401.13
2022-12-13T04:26:10.406Z,96403.59
2022-12-13T04:28:38.218Z,96402.75
2022-12-13T04:31:05.081Z,96401.06
2022-12-13T04:33:32.823Z,96402.84
2022-12-13T04:35:59.947Z,96405.50
2022-12-13T04:38:26.722Z,96404.56
2022-12-13T04:40:53.337Z,96411.78
2022-12-13T04:43:19.909Z,96411.91
2022-12-13T04:45:46.596Z,96413.97
2022-12-13T04:48:13.802Z,96417.44
2022-12-13T04:51:01.266Z,96417.44
2022-12-13T04:53:30.013Z,96413.91
2022-12-13T04:55:56.734Z,96411.38
2022-12-13T04:58:23.375Z,96406.31
2022-12-13T05:00:50.093Z,96399.59
2022-12-13T05:03:16.692Z,96396.19
2022-12-13T05:05:43.302Z,96396.88
2022-12-13T05:08:10.013Z,96390.97
2022-12-13T05:10:38.273Z,96384.88
2022-12-13T05:13:05.457Z,96382.75
2022-12-13T05:15:32.368Z,96389.22
2022-12-13T05:18:01.831Z,96383.00
2022-12-13T05:20:38.447Z,96367.41
2022-12-13T05:23:05.009Z,96363.03
2022-12-13T05:25:33.347Z,96367.22
2022-12-13T05:27:59.938Z,96367.19
2022-12-13T05:30:26.546Z,96355.22
2022-12-13T05:32:53.105Z,96340.72
2022-12-13T05:35:22.501Z,96342.53
2022-12-13T05:37:53.673Z,96346.81
2022-12-13T05:40:26.693Z,96351.06
2022-12-13T05:43:01.380Z,96349.31
2022-12-13T05:45:31.124Z,96350.91
2022-12-13T05:47:58.244Z,96351.03
2022-12-13T05:50:25.676Z,96344.34
2022-12-13T05:52:52.523Z,96346.84
2022-12-13T05:55:19.915Z,96343.47
2022-12-13T05:57:50.427Z,96346.94
2022-12-13T06:00:28.871Z,96350.31
2022-12-13T06:02:57.457Z,96349.34
2022-12-13T06:05:28.819Z,96346.94
2022-12-13T06:07:57.450Z,96349.44
2022-12-13T06:10:24.638Z,96350.34
2022-12-13T06:12:51.217Z,96352.13
2022-12-13T06:15:21.713Z,96352.91
2022-12-13T06:17:48.770Z,96353.00
2022-12-13T06:20:23.384Z,96344.50
2022-12-13T06:22:52.390Z,96347.91
2022-12-13T06:25:30.779Z,96346.25
2022-12-13T06:28:00.856Z,96345.50
2022-12-13T06:30:29.033Z,96342.94
2022-12-13T06:32:55.984Z,96350.69
2022-12-13T06:35:27.951Z,96349.84
2022-12-13T06:38:01.551Z,96358.38
2022-12-13T06:40:30.552Z,96366.13
2022-12-13T06:42:57.699Z,96352.41
2022-12-13T06:45:24.949Z,96365.22
2022-12-13T06:47:51.513Z,96373.78
2022-12-13T06:50:18.096Z,96366.91
2022-12-13T06:52:46.648Z,96371.25
2022-12-13T06:55:13.621Z,96377.22
2022-12-13T06:57:40.720Z,96375.63
2022-12-13T07:00:09.447Z,96368.75
2022-12-13T07:02:36.376Z,96369.66
2022-12-13T07:05:03.032Z,96370.47
2022-12-13T07:07:29.940Z,96369.59
2022-12-13T07:09:56.721Z,96373.94
2022-12-13T07:12:23.540Z,96372.22
2022-12-13T07:14:50.477Z,96373.91
2022-12-13T07:17:32.969Z,96376.53
2022-12-13T07:20:08.105Z,96373.94
2022-12-13T07:22:38.801Z,96373.09
2022-12-13T07:25:26.703Z,96369.56
2022-12-13T07:28:02.274Z,96367.94
2022-12-13T07:30:31.200Z,96366.19
2022-12-13T07:32:58.155Z,96371.38
2022-12-13T07:35:24.757Z,96368.75
2022-12-13T07:37:51.315Z,96367.78
2022-12-13T07:40:17.905Z,96372.03
2022-12-13T07:42:51.258Z,96375.59
2022-12-13T07:45:18.571Z,96384.06
2022-12-13T07:47:45.338Z,96378.78
2022-12-13T07:50:24.269Z,96374.56
2022-12-13T07:52:53.378Z,96371.03
2022-12-13T07:55:23.129Z,96369.31
2022-12-13T07:58:07.597Z,96376.09
2022-12-13T08:00:35.059Z,96370.16
2022-12-13T08:03:02.173Z,96365.97
2022-12-13T08:05:29.264Z,96366.78
2022-12-13T08:08:08.014Z,96359.91
2022-12-13T08:10:34.836Z,96356.38
2022-12-13T08:13:04.943Z,96355.44
2022-12-13T08:15:31.673Z,96353.66
2022-12-13T08:18:00.799Z,96351.78
2022-12-13T08:20:27.634Z,96357.69
2022-12-13T08:22:55.748Z,96354.03
2022-12-13T08:25:29.573Z,96348.75
2022-12-13T08:27:56.254Z,96347.75
2022-12-13T08:30:29.655Z,96343.19
2022-12-13T08:32:56.204Z,96351.53
2022-12-13T08:35:22.778Z,96354.63
2022-12-13T08:37:49.365Z,96352.66
2022-12-13T08:40:16.142Z,96344.06
2022-12-13T08:42:43.757Z,96349.75
2022-12-13T08:45:10.895Z,96368.28
2022-12-13T08:47:41.782Z,96364.53
2022-12-13T08:50:08.935Z,96361.56
2022-12-13T08:52:40.355Z,96358.94
2022-12-13T08:55:12.528Z,96364.34
2022-12-13T08:57:40.779Z,96367.00
2022-12-13T09:00:11.386Z,96377.84
2022-12-13T09:02:38.895Z,96375.31
2022-12-13T09:05:07.711Z,96382.88
2022-12-13T09:07:40.963Z,96384.25
2022-12-13T09:10:27.192Z,96392.72
2022-12-13T09:13:01.443Z,96391.13
2022-12-13T09:15:34.617Z,96381.97
2022-12-13T09:18:04.243Z,96385.19
2022-12-13T09:20:41.142Z,96386.75
2022-12-13T09:23:14.273Z,96388.72
2022-12-13T09:26:05.929Z,96386.81
2022-12-13T09:28:34.780Z,96381.34
2022-12-13T09:31:01.433Z,96392.28
2022-12-13T09:33:30.507Z,96392.66
2022-12-13T09:35:58.233Z,96392.72
2022-12-13T09:38:27.996Z,96392.72
2022-12-13T09:40:59.189Z,96384.16
2022-12-13T09:43:33.141Z,96390.63
2022-12-13T09:46:22.756Z,96384.25
2022-12-13T09:48:53.607Z,96387.75
2022-12-13T09:51:44.030Z,96395.09
2022-12-13T09:54:19.590Z,96397.63
2022-12-13T09:56:50.921Z,96394.22
2022-12-13T09:59:32.352Z,96395.94
2022-12-13T10:02:14.674Z,96400.16
2022-12-13T10:04:41.558Z,96391.31
2022-12-13T10:07:28.422Z,96390.75
2022-12-13T10:10:00.801Z,96385.00
2022-12-13T10:12:28.611Z,96387.75
2022-12-13T10:15:00.058Z,96379.84
2022-12-13T10:17:31.865Z,96372.84
2022-12-13T10:20:07.067Z,96367.13
2022-12-13T10:22:33.709Z,96369.97
2022-12-13T10:25:05.404Z,96357.63
2022-12-13T10:27:40.365Z,96364.78
2022-12-13T10:30:12.863Z,96362.63
2022-12-13T10:32:48.438Z,96355.84
2022-12-13T10:35:23.991Z,96347.09
2022-12-13T10:37:50.890Z,96342.78
2022-12-13T10:40:33.133Z,96343.19
2022-12-13T10:43:17.192Z,96338.09
2022-12-13T10:45:57.132Z,96326.66
2022-12-13T10:48:24.974Z,96337.72
2022-12-13T10:51:20.090Z,96329.09
2022-12-13T10:54:00.644Z,96327.81
2022-12-13T10:56:43.567Z,96325.97
2022-12-13T10:59:36.331Z,96330.03
2022-12-13T11:02:31.120Z,96332.72
2022-12-13T11:04:59.276Z,96321.38
2022-12-13T11:07:29.970Z,96322.88
2022-12-13T11:10:05.455Z,96323.13
2022-12-13T11:12:33.055Z,96329.06
2022-12-13T11:15:07.610Z,96328.53
2022-12-13T11:17:50.226Z,96342.09
2022-12-13T11:20:24.928Z,96319.78
2022-12-13T11:23:02.396Z,96316.44
2022-12-13T11:25:41.352Z,96326.34
2022-12-13T11:28:27.647Z,96320.66
2022-12-13T11:31:20.642Z,96321.38
2022-12-13T11:34:10.389Z,96318.06
2022-12-13T11:36:55.756Z,96309.34
2022-12-13T11:39:29.198Z,96303.00
2022-12-13T11:41:55.798Z,96303.19
2022-12-13T11:44:34.001Z,96286.00
2022-12-13T11:47:01.748Z,96272.88
2022-12-13T11:49:41.625Z,96261.97
2022-12-13T11:52:44.715Z,96270.03
2022-12-13T11:55:44.615Z,96265.78
2022-12-13T11:59:03.597Z,96256.84
2022-12-13T12:01:43.944Z,96242.22
2022-12-13T12:04:31.495Z,96238.00
2022-12-13T12:07:31.042Z,96247.38
2022-12-13T12:10:03.291Z,96258.34
2022-12-13T12:12:35.425Z,96250.97
2022-12-13T12:15:26.590Z,96244.66
2022-12-13T12:17:55.884Z,96247.81
2022-12-13T12:20:36.467Z,96239.75
2022-12-13T12:23:32.075Z,96235.88
2022-12-13T12:26:09.081Z,96244.75
2022-12-13T12:29:06.159Z,96245.97
2022-12-13T12:32:12.100Z,96244.66
2022-12-13T12:35:10.408Z,96238.06
2022-12-13T12:37:59.267Z,96240.47
2022-12-13T12:41:07.139Z,96242.47
2022-12-13T12:43:21.578Z,96232.91
2022-12-13T12:46:22.870Z,96235.13
2022-12-13T12:49:24.892Z,96231.00
2022-12-13T12:51:59.609Z,96245.31
2022-12-13T12:54:35.233Z,96238.16
2022-12-13T12:57:20.162Z,96242.09
2022-12-13T13:00:01.704Z,96243.19
2022-12-13T13:03:05.249Z,96249.00
2022-12-13T13:05:43.790Z,96242.59
2022-12-13T13:08:32.852Z,96243.78
2022-12-13T13:11:02.066Z,96243.81
2022-12-13T13:13:50.435Z,96245.03
2022-12-13T13:16:35.565Z,96235.31
2022-12-13T13:19:30.894Z,96231.59
2022-12-13T13:22:01.746Z,96224.13
2022-12-13T13:24:30.539Z,96225.25
2022-12-13T13:27:10.183Z,96224.75
2022-12-13T13:29:43.099Z,96215.03
2022-12-13T13:32:12.640Z,96212.69
2022-12-13T13:35:36.056Z,96211.38
2022-12-13T13:38:24.315Z,96211.66
2022-12-13T13:40:51.518Z,96215.53
2022-12-13T13:43:32.485Z,96222.22
2022-12-13T13:46:10.838Z,96218.44
2022-12-13T13:49:11.616Z,96207.59
2022-12-13T13:55:21.202Z,96211.78
2022-12-13T13:58:10.464Z,96203.72
2022-12-13T14:01:15.101Z,96209.50
2022-12-13T14:04:24.297Z,96219.53
2022-12-13T14:07:06.310Z,96218.13
2022-12-13T14:09:41.870Z,96213.06
2022-12-13T14:12:30.004Z,96218.63
2022-12-13T14:15:21.185Z,96217.28
2022-12-13T14:18:06.289Z,96217.84
2022-12-13T14:20:53.649Z,96212.94
2022-12-13T14:23:53.412Z,96214.31
2022-12-13T14:26:32.943Z,96214.72
2022-12-13T14:29:02.732Z,96208.75
2022-12-13T14:31:44.702Z,96216.06
2022-12-13T14:34:31.426Z,96215.13
2022-12-13T14:37:05.968Z,96221.56
2022-12-13T14:39:36.766Z,96218.13
2022-12-13T14:42:23.750Z,96219.19
2022-12-13T14:44:50.775Z,96230.53
2022-12-13T14:47:18.949Z,96226.34
2022-12-13T14:49:50.699Z,96226.41
2022-12-13T14:52:26.207Z,96227.50
2022-12-13T14:54:59.664Z,96216.47
2022-12-13T14:57:29.595Z,96220.22
2022-12-13T14:59:59.130Z,96216.25
2022-12-13T15:02:32.259Z,96217.22
2022-12-13T15:05:01.842Z,96213.09
2022-12-13T15:07:30.972Z,96202.91
2022-12-13T15:10:00.821Z,96203.13
2022-12-13T15:12:29.980Z,96198.25
2022-12-13T15:15:02.390Z,96190.03
2022-12-13T15:17:37.733Z,96185.53
2022-12-13T15:20:28.720Z,96188.25
2022-12-13T15:23:02.989Z,96186.56
2022-12-13T15:25:33.981Z,96179.84
2022-12-13T15:28:01.169Z,96182.41
2022-12-13T15:30:31.954Z,96179.88
2022-12-13T15:33:07.844Z,96175.63
2022-12-13T15:35:37.002Z,96173.94
2022-12-13T15:38:04.482Z,96173.22
2022-12-13T15:40:31.556Z,96167.28
2022-12-13T15:42:58.447Z,96163.69
2022-12-13T15:45:31.767Z,96165.53
2022-12-13T15:48:04.489Z,96161.31
2022-12-13T15:50:43.738Z,96161.16
2022-12-13T15:53:25.795Z,96158.75
2022-12-13T15:55:52.809Z,96156.38
2022-12-13T15:58:35.170Z,96153.91
2022-12-13T16:01:05.434Z,96152.41
2022-12-13T16:03:44.261Z,96148.19
2022-12-13T16:06:18.757Z,96140.34
2022-12-13T16:08:51.089Z,96150.66
2022-12-13T16:11:38.429Z,96152.28
2022-12-13T16:14:26.601Z,96131.84
2022-12-13T16:16:55.335Z,96130.41
2022-12-13T16:19:22.078Z,96131.25
2022-12-13T16:21:48.663Z,96130.56
2022-12-13T16:24:15.831Z,96140.88
2022-12-13T16:26:48.009Z,96130.47
2022-12-13T16:29:21.650Z,96128.09
2022-12-13T16:31:48.928Z,96137.50
2022-12-13T16:34:18.149Z,96136.81
2022-12-13T16:36:47.471Z,96137.97
2022-12-13T16:39:14.927Z,96134.44
2022-12-13T16:41:44.854Z,96126.88
2022-12-13T16:44:21.896Z,96131.28
2022-12-13T16:47:12.088Z,96131.38
2022-12-13T16:49:35.480Z,96128.91
2022-12-13T16:52:03.071Z,96132.31
2022-12-13T16:54:29.639Z,96134.97
2022-12-13T16:56:56.326Z,96140.88
2022-12-13T16:59:26.414Z,96132.13
2022-12-13T17:01:53.504Z,96133.53
2022-12-13T17:04:27.457Z,96129.44
2022-12-13T17:06:54.652Z,96119.97
2022-12-13T17:09:23.194Z,96107.06
2022-12-13T17:11:49.763Z,96111.16
2022-12-13T17:14:16.344Z,96103.53
2022-12-13T17:16:43.063Z,96098.47
2022-12-13T17:19:11.654Z,96107.06
2022-12-13T17:21:38.292Z,96109.44
2022-12-13T17:24:05.028Z,96107.81
2022-12-13T17:26:32.689Z,96111.97
2022-12-13T17:28:59.512Z,96113.78
2022-12-13T17:31:29.261Z,96106.06
2022-12-13T17:34:02.733Z,96102.72
2022-12-13T17:36:31.332Z,96094.97
2022-12-13T17:38:58.112Z,96100.06
2022-12-13T17:41:24.894Z,96092.50
2022-12-13T17:43:51.492Z,96079.75
2022-12-13T17:46:19.336Z,96079.84
2022-12-13T17:48:46.687Z,96079.84
2022-12-13T17:51:14.184Z,96073.31
2022-12-13T17:53:42.702Z,96070.53
2022-12-13T17:56:12.287Z,96069.69
2022-12-13T17:58:40.122Z,96061.97
2022-12-13T18:01:14.681Z,96047.34
2022-12-13T18:03:41.482Z,96069.72
2022-12-13T18:06:09.236Z,96066.19
2022-12-13T18:08:40.464Z,96071.06
2022-12-13T18:11:32.225Z,96065.84
2022-12-13T18:13:56.134Z,96064.09
2022-12-13T18:16:28.952Z,96062.88
2022-12-13T18:19:00.849Z,96077.44
2022-12-13T18:21:27.718Z,96070.72
2022-12-13T18:23:56.138Z,96073.97
2022-12-13T18:26:24.179Z,96073.28
2022-12-13T18:28:51.342Z,96080.91
2022-12-13T18:31:20.626Z,96081.69
2022-12-13T18:33:49.673Z,96074.88
2022-12-13T18:36:18.442Z,96068.00
2022-12-13T18:38:45.198Z,96061.28
2022-12-13T18:41:15.373Z,96061.91
2022-12-13T18:43:43.384Z,96056.13
2022-12-13T18:46:11.478Z,96055.16
2022-12-13T18:48:38.385Z,96059.31
2022-12-13T18:51:08.671Z,96068.09
2022-12-13T18:53:37.188Z,96070.50
2022-12-13T18:56:06.347Z,96065.47
2022-12-13T18:58:33.999Z,96067.31
2022-12-13T19:01:00.722Z,96063.19
2022-12-13T19:03:27.713Z,96057.94
2022-12-13T19:05:58.367Z,96048.53
2022-12-13T19:08:26.413Z,96049.28
2022-12-13T19:10:59.435Z,96051.06
2022-12-13T19:13:28.327Z,96049.22
2022-12-13T19:15:59.163Z,96052.69
2022-12-13T19:18:30.886Z,96052.63
2022-12-13T19:20:58.727Z,96043.25
2022-12-13T19:23:25.581Z,96037.25
2022-12-13T19:25:52.503Z,96044.34
2022-12-13T19:28:19.179Z,96052.06
2022-12-13T19:30:47.723Z,96036.41
2022-12-13T19:33:15.009Z,96028.16
2022-12-13T19:35:45.418Z,96020.31
2022-12-13T19:38:12.338Z,96023.03
2022-12-13T19:40:42.987Z,96020.34
2022-12-13T19:43:11.481Z,96023.75
2022-12-13T19:45:38.510Z,96017.19
2022-12-13T19:48:05.184Z,96012.88
2022-12-13T19:50:31.971Z,96006.16
2022-12-13T19:52:58.572Z,96010.38
2022-12-13T19:55:25.193Z,96003.59
2022-12-13T19:57:51.770Z,96008.84
2022-12-13T20:00:18.447Z,96002.84
2022-12-13T20:02:45.152Z,96008.22
2022-12-13T20:05:11.807Z,95999.75
2022-12-13T20:07:38.454Z,96000.28
2022-12-13T20:10:05.867Z,95999.66
2022-12-13T20:12:38.853Z,96000.69
2022-12-13T20:15:08.096Z,95991.94
2022-12-13T20:17:35.581Z,95993.81
2022-12-13T20:20:02.755Z,95990.28
2022-12-13T20:22:29.497Z,95979.06
2022-12-13T20:24:56.079Z,95985.16
2022-12-13T20:27:22.787Z,95989.72
2022-12-13T20:29:50.098Z,95985.56
2022-12-13T20:32:17.085Z,95987.19
2022-12-13T20:34:43.700Z,95980.25
2022-12-13T20:37:10.554Z,95983.88
2022-12-13T20:39:37.137Z,95983.63
2022-12-13T20:42:03.818Z,95982.88
2022-12-13T20:44:30.512Z,95963.91
2022-12-13T20:46:57.217Z,95962.84
2022-12-13T20:49:23.843Z,95966.41
2022-12-13T20:51:51.781Z,95965.25
2022-12-13T20:54:19.430Z,95962.66
2022-12-13T20:56:46.018Z,95962.72
2022-12-13T20:59:14.292Z,95971.28
2022-12-13T21:01:42.287Z,95973.03
2022-12-13T21:04:10.920Z,95973.91
2022-12-13T21:06:40.711Z,95981.53
2022-12-13T21:09:09.329Z,95967.78
2022-12-13T21:11:42.354Z,95945.41
2022-12-13T21:14:22.846Z,95938.56
2022-12-13T21:16:56.723Z,95921.44
2022-12-13T21:19:25.603Z,95914.56
2022-12-13T21:21:54.108Z,95902.50
2022-12-13T21:24:22.310Z,95902.69
2022-12-13T21:26:51.152Z,95895.84
2022-12-13T21:29:19.078Z,95881.31
2022-12-13T21:31:48.662Z,95882.25
2022-12-13T21:34:16.707Z,95882.47
2022-12-13T21:36:47.214Z,95873.56
2022-12-13T21:39:20.141Z,95878.00
2022-12-13T21:41:46.882Z,95865.78
2022-12-13T21:44:15.666Z,95867.53
2022-12-13T21:49:29.727Z,95846.97
2022-12-13T21:51:57.092Z,95844.38
2022-12-13T21:54:23.734Z,95846.88
2022-12-13T21:57:08.583Z,95840.84
2022-12-13T21:59:35.261Z,95846.00
2022-12-13T22:02:20.417Z,95834.81
2022-12-13T22:04:55.507Z,95829.47
2022-12-13T22:07:31.126Z,95825.25
2022-12-13T22:09:59.072Z,95826.97
2022-12-13T22:12:36.066Z,95817.59
2022-12-13T22:15:04.645Z,95819.47
2022-12-13T22:17:35.677Z,95801.25
2022-12-13T22:20:05.245Z,95809.88
2022-12-13T22:22:31.990Z,95804.78
2022-12-13T22:24:58.581Z,95797.94
2022-12-13T22:27:25.938Z,95789.16
2022-12-13T22:29:56.689Z,95785.69
2022-12-13T22:32:25.226Z,95786.56
2022-12-13T22:34:51.791Z,95781.31
2022-12-13T22:37:18.475Z,95770.88
2022-12-13T22:39:45.129Z,95770.97
2022-12-13T22:42:11.725Z,95777.00
2022-12-13T22:44:38.405Z,95768.44
2022-12-13T22:47:05.000Z,95764.84
2022-12-13T22:49:31.605Z,95774.44
2022-12-13T22:51:58.247Z,95771.97
2022-12-13T22:54:24.835Z,95773.59
2022-12-13T22:56:52.471Z,95769.41
2022-12-13T22:59:19.266Z,95762.22
2022-12-13T23:01:47.244Z,95769.09
2022-12-13T23:04:15.277Z,95764.78
2022-12-13T23:06:41.980Z,95778.44
2022-12-13T23:09:12.585Z,95777.72
2022-12-13T23:11:57.957Z,95779.69
2022-12-13T23:14:33.960Z,95791.47
2022-12-13T23:17:01.729Z,95791.56
2022-12-13T23:19:41.583Z,95789.03
2022-12-13T23:22:15.871Z,95800.97
2022-12-13T23:24:42.731Z,95791.47
2022-12-13T23:27:09.560Z,95801.06
2022-12-13T23:29:36.223Z,95802.66
2022-12-13T23:32:02.817Z,95796.63
2022-12-13T23:34:29.415Z,95801.72
2022-12-13T23:36:55.982Z,95801.78
2022-12-13T23:39:22.589Z,95787.97
2022-12-13T23:41:49.185Z,95792.09
2022-12-13T23:44:15.969Z,95787.97
2022-12-13T23:46:48.110Z,95781.97
2022-12-13T23:49:16.113Z,95770.06
2022-12-13T23:51:42.773Z,95760.69
2022-12-13T23:54:14.609Z,95751.94
2022-12-13T23:56:41.283Z,95749.41
2022-12-13T23:59:07.879Z,95740.00
